AirNav   TITAN Aviation Fuels
 
 1060 users online  

4FD5 Grand Lagoon Seaplane Base
Panama City, Florida, USA

GOING TO PANAMA CITY?


FAA INFORMATION EFFECTIVE 16 JUNE 2022

Location

FAA Identifier: 4FD5
Lat/Long: 30-08-05.7300N 085-44-02.7480W
30-08.095500N 085-44.045800W
30.1349250,-85.7340967
(estimated)
Elevation: 0 ft. / 0 m (estimated)
Variation: 00E (1985)
From city: 4 miles W of PANAMA CITY, FL
Time zone: UTC -5 (UTC -6 during Standard Time)
Zip code: 32408

Seaplane Base Operations

Seaplane Base use: Private use, PERSONAL USE
Activation date: 03/1988
Control tower: no
ARTCC: JACKSONVILLE CENTER
FSS: GAINESVILLE FLIGHT SERVICE STATION
Attendance: APR-SEP DAYLIGHT HOURS
Wind indicator: yes
Segmented circle: no

Seaplane Base Communications

WX ASOS at ECP (14 nm N): 119.975 (850-235-7857)

Seaplane Base Services

Fuel available: 100LL

Runway Information

Runway 13W/31W

Dimensions: 2000 x 100 ft. / 610 x 30 m
Surface: water
RUNWAY 13W  RUNWAY 31W
Traffic pattern: leftleft

Seaplane Base Ownership and Management from official FAA records

Ownership: Privately-owned
Owner: RICHARD P. GREGG
3939 W HWY 388
SOUTHPORT, FL 32409
Phone 850-234-1532
Manager: GREG DELAVAN
6420 W HIGHWAY 98
PANAMA CITY, FL 32407-5402
Phone 904-871-2911

Seaplane Base Operational Statistics

Aircraft based on the field: 1
Single engine airplanes: 1
    

Additional Remarks

FOR CD CTC TYNDALL APCH AT 850-283-2900 OR 850-283-3353, WHEN APCH CLSD CTC JACKSONVILLE ARTCC AT 904-845-1592.

Instrument Procedures

There are no published instrument procedures at 4FD5.

Some nearby airports with instrument procedures:

KPAM - Tyndall Air Force Base (9 nm SE)
KECP - Northwest Florida Beaches International Airport (14 nm N)
KDTS - Destin Executive Airport (41 nm NW)
54J - DeFuniak Springs Airport (42 nm NW)
KBCR - Tri-County Airport (43 nm N)
 
Loc | Ops | Rwys | IFR | FBO | Links
Com | Nav | Svcs | Stats | Notes
Area around 4FD5 (Grand Lagoon Seaplane Base)
 
Road maps at: MapQuest Bing Google
 
Aerial photo
No photo
 
Sectional chart

 
Airport distance calculator
Flying to Grand Lagoon Seaplane Base? Find the distance to fly.

From to 4FD5

Sunrise and sunset
Times for 25-Jun-2022
 Local
(UTC-5)
 Zulu
(UTC)
Morning civil twilight05:1610:16
Sunrise05:4410:44
Sunset19:4700:47
Evening civil twilight20:1501:15

Current date and time
Zulu (UTC)  25-Jun-2022 13:12:51
Local (UTC-5)  25-Jun-2022 08:12:51
 
METAR
KPAM 
10nm SE 
251256Z AUTO 07008KT 10SM SCT080 27/24 A3000 RMK AO2 LTG DSNT NW SLP162 T02690239 $
KTDR 
12nm SE 
251256Z AUTO 08010KT 10SM BKN080 OVC120 29/26 A2998 RMK AO2 LTG DSNT SE AND NW SLP156 T02850259 $
KECP 
14nm N 
251301Z VRB04KT 10SM SCT023 BKN090 OVC110 26/24 A3000 RMK AO1 LTG DSNT SW AND W T02610239
TAF
KPAM 
10nm SE 
241900Z 2419/2601 24012KT 9999 FEW040 QNH2983INS TEMPO 2420/2423 21012G18KT 6000 TSRA BKN030CB BECMG 2502/2503 VRB06KT 9999 FEW040 QNH2986INS BECMG 2516/2517 22009KT 9999 SCT030 QNH2995INS TEMPO 2518/2523 19015G26KT 6000 TSRA BKN020CB BECMG 2522/2523 16009KT 9999 SCT030 QNH2997INS TX36/2419Z TN28/2510Z LAST NO AMDS AFT 2422 NEXT 2711
KECP 
14nm N 
251120Z 2512/2612 06004KT P6SM BKN018 FM251500 15008KT P6SM VCTS BKN035CB OVC100 TEMPO 2517/2521 3SM TSRA FM252200 VRB03KT P6SM VCSH SCT080 BKN120
NOTAMs
Click for the latest NOTAMs
NOTAMs are issued by the DoD/FAA and will open in a separate window not controlled by AirNav.

 

 
 

Would you like to see your business listed on this page?

 If your business provides an interesting product or service to pilots, flight crews, aircraft, or users of the Grand Lagoon Seaplane Base, you should consider listing it here.  To start the listing process, click on the button below
 
Add a business
 

Other Pages about Grand Lagoon Seaplane Base

Update a link
 
Copyright © AirNav, LLC. All rights reserved. Privacy Policy  Contact